createdAt,value
2023-02-14T00:00:57.046Z,5.20
2023-02-14T00:04:01.980Z,5.20
2023-02-14T00:07:06.587Z,5.20
2023-02-14T00:10:11.323Z,5.20
2023-02-14T00:13:15.955Z,5.20
2023-02-14T00:16:20.322Z,5.10
2023-02-14T00:19:25.088Z,5.10
2023-02-14T00:22:29.357Z,5.00
2023-02-14T00:25:34.796Z,4.90
2023-02-14T00:28:39.288Z,4.90
2023-02-14T00:31:44.582Z,4.90
2023-02-14T00:34:48.884Z,4.90
2023-02-14T00:37:53.566Z,4.80
2023-02-14T00:40:58.006Z,4.70
2023-02-14T00:44:02.874Z,4.70
2023-02-14T00:47:07.896Z,4.70
2023-02-14T00:50:12.222Z,4.70
2023-02-14T00:53:16.573Z,4.70
2023-02-14T00:56:21.347Z,4.60
2023-02-14T00:59:25.911Z,4.50
2023-02-14T01:02:30.392Z,4.40
2023-02-14T01:05:34.803Z,4.40
2023-02-14T01:08:41.898Z,4.40
2023-02-14T01:11:46.291Z,4.30
2023-02-14T01:14:52.496Z,4.40
2023-02-14T01:17:58.446Z,4.30
2023-02-14T01:21:21.886Z,4.30
2023-02-14T01:24:26.734Z,4.20
2023-02-14T01:27:31.043Z,4.20
2023-02-14T01:30:37.013Z,4.30
2023-02-14T01:33:44.013Z,4.30
2023-02-14T01:36:48.729Z,4.20
2023-02-14T01:39:53.102Z,4.20
2023-02-14T01:42:57.399Z,4.20
2023-02-14T01:46:01.825Z,4.20
2023-02-14T01:49:25.529Z,4.10
2023-02-14T01:52:57.038Z,4.20
2023-02-14T01:56:06.799Z,4.20
2023-02-14T01:59:17.038Z,4.20
2023-02-14T02:02:23.890Z,4.20
2023-02-14T02:05:28.667Z,4.10
2023-02-14T02:08:37.143Z,4.20
2023-02-14T02:11:42.739Z,4.10
2023-02-14T02:14:50.633Z,4.10
2023-02-14T02:18:35.217Z,4.10
2023-02-14T02:22:14.647Z,4.10
2023-02-14T02:25:46.679Z,4.00
2023-02-14T02:29:16.531Z,4.00
2023-02-14T02:32:52.766Z,3.90
2023-02-14T02:36:03.033Z,4.00
2023-02-14T02:39:49.109Z,4.00
2023-02-14T02:43:28.806Z,4.00
2023-02-14T02:46:49.354Z,4.10
2023-02-14T02:50:36.872Z,4.30
2023-02-14T02:53:47.911Z,4.30
2023-02-14T02:56:57.648Z,4.40
2023-02-14T03:00:05.536Z,4.40
2023-02-14T03:03:29.519Z,4.30
2023-02-14T03:06:34.323Z,4.40
2023-02-14T03:09:41.552Z,4.40
2023-02-14T03:13:11.141Z,4.40
2023-02-14T03:16:18.903Z,4.50
2023-02-14T03:20:10.359Z,4.50
2023-02-14T03:23:21.914Z,4.50
2023-02-14T03:26:43.060Z,4.50
2023-02-14T03:30:14.657Z,4.60
2023-02-14T03:33:29.416Z,4.60
2023-02-14T03:36:52.572Z,4.50
2023-02-14T03:40:04.628Z,4.60
2023-02-14T03:43:12.948Z,4.60
2023-02-14T03:46:51.058Z,4.60
2023-02-14T03:50:04.553Z,4.60
2023-02-14T03:53:11.533Z,4.60
2023-02-14T03:56:40.256Z,4.60
2023-02-14T03:59:44.819Z,4.60
2023-02-14T04:02:54.773Z,4.60
2023-02-14T04:06:00.473Z,4.70
2023-02-14T04:09:04.653Z,4.70
2023-02-14T04:12:09.781Z,4.60
2023-02-14T04:15:14.948Z,4.60
2023-02-14T04:18:38.024Z,4.60
2023-02-14T04:21:42.552Z,4.60
2023-02-14T04:24:46.874Z,4.60
2023-02-14T04:27:51.697Z,4.70
2023-02-14T04:30:55.930Z,4.70
2023-02-14T04:34:00.325Z,4.70
2023-02-14T04:37:05.659Z,4.60
2023-02-14T04:40:10.350Z,4.70
2023-02-14T04:43:14.493Z,4.70
2023-02-14T04:46:18.789Z,4.60
2023-02-14T04:49:23.261Z,4.60
2023-02-14T04:52:27.848Z,4.70
2023-02-14T04:55:34.283Z,4.70
2023-02-14T04:58:38.613Z,4.60
2023-02-14T05:01:43.354Z,4.60
2023-02-14T05:04:49.745Z,4.70
2023-02-14T05:07:54.296Z,4.70
2023-02-14T05:10:58.870Z,4.70
2023-02-14T05:14:03.369Z,4.70
2023-02-14T05:17:07.995Z,4.70
2023-02-14T05:20:12.749Z,4.70
2023-02-14T05:23:17.415Z,4.70
2023-02-14T05:26:22.064Z,4.60
2023-02-14T05:29:27.007Z,4.70
2023-02-14T05:32:31.444Z,4.70
2023-02-14T05:35:36.040Z,4.60
2023-02-14T05:38:40.821Z,4.60
2023-02-14T05:41:45.178Z,4.70
2023-02-14T05:44:49.753Z,4.70
2023-02-14T05:47:54.422Z,4.60
2023-02-14T05:51:04.430Z,4.60
2023-02-14T05:54:10.839Z,4.70
2023-02-14T05:57:15.729Z,4.80
2023-02-14T06:00:20.595Z,4.70
2023-02-14T06:03:25.075Z,4.70
2023-02-14T06:06:29.499Z,4.70
2023-02-14T06:09:33.811Z,4.70
2023-02-14T06:12:38.283Z,4.70
2023-02-14T06:15:42.924Z,4.70
2023-02-14T06:18:47.293Z,4.70
2023-02-14T06:21:51.444Z,4.70
2023-02-14T06:24:55.710Z,4.70
2023-02-14T06:28:00.256Z,4.70
2023-02-14T06:31:05.446Z,4.70
2023-02-14T06:34:09.948Z,4.70
2023-02-14T06:37:14.287Z,4.70
2023-02-14T06:40:19.640Z,4.70
2023-02-14T06:43:24.030Z,4.80
2023-02-14T06:46:28.383Z,4.70
2023-02-14T06:49:32.667Z,4.70
2023-02-14T06:52:37.548Z,4.70
2023-02-14T06:55:43.827Z,4.70
2023-02-14T06:58:48.296Z,4.70
2023-02-14T07:01:52.679Z,4.80
2023-02-14T07:04:56.870Z,4.90
2023-02-14T07:08:01.271Z,4.90
2023-02-14T07:11:05.687Z,4.80
2023-02-14T07:14:09.879Z,4.80
2023-02-14T07:17:14.022Z,4.80
2023-02-14T07:20:19.283Z,4.80
2023-02-14T07:23:23.793Z,4.80
2023-02-14T07:26:28.303Z,4.80
2023-02-14T07:29:32.541Z,4.80
2023-02-14T07:32:38.063Z,4.80
2023-02-14T07:35:42.468Z,4.80
2023-02-14T07:38:47.086Z,4.90
2023-02-14T07:41:51.539Z,4.90
2023-02-14T07:44:57.372Z,4.90
2023-02-14T07:48:04.595Z,4.90
2023-02-14T07:51:09.814Z,4.90
2023-02-14T07:54:14.089Z,4.90
2023-02-14T07:57:18.584Z,4.90
2023-02-14T08:00:23.391Z,4.90
2023-02-14T08:03:27.917Z,5.00
2023-02-14T08:06:32.495Z,5.00
2023-02-14T08:09:37.306Z,5.00
2023-02-14T08:13:01.075Z,5.00
2023-02-14T08:16:06.272Z,5.00
2023-02-14T08:19:11.447Z,5.00
2023-02-14T08:22:18.199Z,5.10
2023-02-14T08:25:22.988Z,5.10
2023-02-14T08:28:28.135Z,5.00
2023-02-14T08:31:35.985Z,5.10
2023-02-14T08:34:40.883Z,5.10
2023-02-14T08:37:45.120Z,5.10
2023-02-14T08:40:49.737Z,5.10
2023-02-14T08:43:54.330Z,5.10
2023-02-14T08:46:58.766Z,5.20
2023-02-14T08:50:07.859Z,5.10
2023-02-14T08:53:13.367Z,5.20
2023-02-14T08:56:18.940Z,5.40
2023-02-14T08:59:23.460Z,5.40
2023-02-14T09:02:27.465Z,5.30
2023-02-14T09:05:32.752Z,5.40
2023-02-14T09:08:38.765Z,5.30
2023-02-14T09:11:43.449Z,5.30
2023-02-14T09:14:47.741Z,5.30
2023-02-14T09:17:52.156Z,5.40
2023-02-14T09:20:56.923Z,5.50
2023-02-14T09:24:02.075Z,5.50
2023-02-14T09:27:07.134Z,5.50
2023-02-14T09:30:12.732Z,5.40
2023-02-14T09:33:16.863Z,5.40
2023-02-14T09:36:39.722Z,5.30
2023-02-14T09:39:44.128Z,5.40
2023-02-14T09:43:11.673Z,5.50
2023-02-14T09:46:18.330Z,5.40
2023-02-14T09:49:32.254Z,5.40
2023-02-14T09:52:36.603Z,5.40
2023-02-14T09:55:52.533Z,5.40
2023-02-14T09:59:00.052Z,5.30
2023-02-14T10:02:38.904Z,5.30
2023-02-14T10:06:07.775Z,5.30
2023-02-14T10:09:36.320Z,5.30
2023-02-14T10:12:50.026Z,5.40
2023-02-14T10:16:20.808Z,5.40
2023-02-14T10:19:52.323Z,5.50
2023-02-14T10:23:06.845Z,5.50
2023-02-14T10:26:17.423Z,5.50
2023-02-14T10:29:22.089Z,5.60
2023-02-14T10:32:45.147Z,5.60
2023-02-14T10:36:03.233Z,5.40
2023-02-14T10:39:35.009Z,5.40
2023-02-14T10:42:55.007Z,5.50
2023-02-14T10:46:13.579Z,5.40
2023-02-14T10:49:18.188Z,5.40
2023-02-14T10:52:46.469Z,5.40
2023-02-14T10:56:00.974Z,5.50
2023-02-14T10:59:27.433Z,5.50
2023-02-14T11:02:41.394Z,5.50
2023-02-14T11:05:50.062Z,5.50
2023-02-14T11:08:56.226Z,5.40
2023-02-14T11:12:01.861Z,5.40
2023-02-14T11:15:15.107Z,5.50
2023-02-14T11:18:32.669Z,5.40
2023-02-14T11:21:42.177Z,5.40
2023-02-14T11:24:48.344Z,5.40
2023-02-14T11:28:02.436Z,5.20
2023-02-14T11:31:07.373Z,5.30
2023-02-14T11:34:36.701Z,5.20
2023-02-14T11:37:53.408Z,5.20
2023-02-14T11:40:59.911Z,5.20
2023-02-14T11:44:22.263Z,5.10
2023-02-14T11:47:29.404Z,5.10
2023-02-14T11:50:33.632Z,5.10
2023-02-14T11:54:00.438Z,5.20
2023-02-14T11:57:14.793Z,5.10
2023-02-14T12:00:20.628Z,5.10
2023-02-14T12:03:27.223Z,5.10
2023-02-14T12:06:34.349Z,5.10
2023-02-14T12:09:41.343Z,5.00
2023-02-14T12:12:49.520Z,5.00
2023-02-14T12:15:56.577Z,5.00
2023-02-14T12:19:05.158Z,5.00
2023-02-14T12:22:18.150Z,4.90
2023-02-14T12:25:33.543Z,5.00
2023-02-14T12:28:42.799Z,5.00
2023-02-14T12:31:49.686Z,5.00
2023-02-14T12:35:02.202Z,5.10
2023-02-14T12:38:39.231Z,5.00
2023-02-14T12:41:49.635Z,5.00
2023-02-14T12:45:35.278Z,5.00
2023-02-14T12:49:05.189Z,5.00
2023-02-14T12:52:22.923Z,4.90
2023-02-14T12:55:51.404Z,4.90
2023-02-14T12:59:08.816Z,5.00
2023-02-14T13:02:22.768Z,4.90
2023-02-14T13:05:45.527Z,4.90
2023-02-14T13:09:01.382Z,4.90
2023-02-14T13:12:31.620Z,4.90
2023-02-14T13:15:51.636Z,4.90
2023-02-14T13:19:13.263Z,4.90
2023-02-14T13:22:21.672Z,4.80
2023-02-14T13:25:33.555Z,4.70
2023-02-14T13:28:39.183Z,4.80
2023-02-14T13:31:44.191Z,4.80
2023-02-14T13:34:49.458Z,4.80
2023-02-14T13:37:58.671Z,4.70
2023-02-14T13:41:05.467Z,4.70
2023-02-14T13:44:10.201Z,4.70
2023-02-14T13:47:25.150Z,4.80
2023-02-14T13:50:29.620Z,4.70
2023-02-14T13:53:41.584Z,4.70
2023-02-14T13:56:45.696Z,4.70
2023-02-14T14:00:18.976Z,4.70
2023-02-14T14:03:29.929Z,4.70
2023-02-14T14:07:03.588Z,4.60
2023-02-14T14:10:11.741Z,4.60
2023-02-14T14:13:41.195Z,4.70
2023-02-14T14:17:00.409Z,4.60
2023-02-14T14:20:27.753Z,4.60
2023-02-14T14:23:37.103Z,4.60
2023-02-14T14:26:45.904Z,4.60
2023-02-14T14:29:54.291Z,4.50
2023-02-14T14:33:34.466Z,4.50
2023-02-14T14:36:38.849Z,4.40
2023-02-14T14:39:49.479Z,4.50
2023-02-14T14:42:55.760Z,4.50
2023-02-14T14:46:02.415Z,4.50
2023-02-14T14:49:11.199Z,4.50
2023-02-14T14:52:38.298Z,4.50
2023-02-14T14:55:51.798Z,4.50
2023-02-14T14:58:56.799Z,4.50
2023-02-14T15:02:02.103Z,4.50
2023-02-14T15:05:27.909Z,4.50
2023-02-14T15:08:32.950Z,4.50
2023-02-14T15:11:57.223Z,4.40
2023-02-14T15:15:01.748Z,4.50
2023-02-14T15:18:12.605Z,4.40
2023-02-14T15:21:18.663Z,4.40
2023-02-14T15:24:23.187Z,4.30
2023-02-14T15:27:28.755Z,4.30
2023-02-14T15:30:37.710Z,4.30
2023-02-14T15:33:42.556Z,4.20
2023-02-14T15:36:51.997Z,4.30
2023-02-14T15:39:57.355Z,4.30
2023-02-14T15:43:13.983Z,4.20
2023-02-14T15:46:24.663Z,4.20
2023-02-14T15:49:37.879Z,4.20
2023-02-14T15:52:42.251Z,4.20
2023-02-14T15:55:51.806Z,4.20
2023-02-14T15:59:04.931Z,4.20
2023-02-14T16:02:25.111Z,4.10
2023-02-14T16:05:29.521Z,4.20
2023-02-14T16:08:39.343Z,4.10
2023-02-14T16:11:44.041Z,4.10
2023-02-14T16:15:22.736Z,4.10
2023-02-14T16:18:41.354Z,4.10
2023-02-14T16:21:56.142Z,4.10
2023-02-14T16:25:00.980Z,4.10
2023-02-14T16:28:05.109Z,4.10
2023-02-14T16:31:15.647Z,4.10
2023-02-14T16:34:20.336Z,4.00
2023-02-14T16:37:28.866Z,4.10
2023-02-14T16:40:33.497Z,4.00
2023-02-14T16:43:38.214Z,4.00
2023-02-14T16:46:43.178Z,4.00
2023-02-14T16:49:47.847Z,4.00
2023-02-14T16:52:52.361Z,4.00
2023-02-14T16:55:57.503Z,4.00
2023-02-14T16:59:01.737Z,4.00
2023-02-14T17:02:06.127Z,4.00
2023-02-14T17:05:10.491Z,4.10
2023-02-14T17:08:15.975Z,4.10
2023-02-14T17:11:21.461Z,4.10
2023-02-14T17:14:27.598Z,4.00
2023-02-14T17:17:32.725Z,4.00
2023-02-14T17:20:37.244Z,4.00
2023-02-14T17:23:41.680Z,4.00
2023-02-14T17:26:46.026Z,4.00
2023-02-14T17:29:52.098Z,4.00
2023-02-14T17:32:56.413Z,4.00
2023-02-14T17:36:10.708Z,4.00
2023-02-14T17:39:18.501Z,4.00
2023-02-14T17:42:22.999Z,4.00
2023-02-14T17:45:27.701Z,4.00
2023-02-14T17:48:31.981Z,4.00
2023-02-14T17:51:36.342Z,4.00
2023-02-14T17:54:40.955Z,4.00
2023-02-14T17:57:45.245Z,4.00
2023-02-14T18:00:49.725Z,4.00
2023-02-14T18:03:54.957Z,4.00
2023-02-14T18:06:59.423Z,3.90
2023-02-14T18:10:05.036Z,3.90
2023-02-14T18:13:09.776Z,3.90
2023-02-14T18:16:17.695Z,3.90
2023-02-14T18:19:22.153Z,3.90
2023-02-14T18:22:28.297Z,3.90
2023-02-14T18:25:36.847Z,3.80
2023-02-14T18:28:41.631Z,3.90
2023-02-14T18:31:46.146Z,3.80
2023-02-14T18:34:51.185Z,3.70
2023-02-14T18:37:55.722Z,3.80
2023-02-14T18:41:07.532Z,3.80
2023-02-14T18:44:13.568Z,3.90
2023-02-14T18:47:18.106Z,3.80
2023-02-14T18:50:22.827Z,3.80
2023-02-14T18:53:27.565Z,3.80
2023-02-14T18:56:35.726Z,3.80
2023-02-14T18:59:40.214Z,3.90
2023-02-14T19:02:44.546Z,3.80
2023-02-14T19:05:49.107Z,3.80
2023-02-14T19:08:53.623Z,3.80
2023-02-14T19:11:59.995Z,3.80
2023-02-14T19:15:06.006Z,3.80
2023-02-14T19:18:10.450Z,3.80
2023-02-14T19:21:17.361Z,3.80
2023-02-14T19:24:22.992Z,3.70
2023-02-14T19:27:27.314Z,3.80
2023-02-14T19:30:31.708Z,3.80
2023-02-14T19:33:41.015Z,3.80
2023-02-14T19:36:46.952Z,3.80
2023-02-14T19:39:51.612Z,3.80
2023-02-14T19:42:56.087Z,3.80
2023-02-14T19:46:04.924Z,3.80
2023-02-14T19:49:12.944Z,3.80
2023-02-14T19:52:26.460Z,3.80
2023-02-14T19:55:31.167Z,3.80
2023-02-14T19:58:36.466Z,3.80
2023-02-14T20:01:46.138Z,3.70
2023-02-14T20:04:50.689Z,3.70
2023-02-14T20:07:55.407Z,3.70
2023-02-14T20:11:00.080Z,3.70
2023-02-14T20:14:05.680Z,3.70
2023-02-14T20:17:12.767Z,3.60
2023-02-14T20:20:17.249Z,3.60
2023-02-14T20:23:21.684Z,3.60
2023-02-14T20:26:27.756Z,3.50
2023-02-14T20:29:33.126Z,3.50
2023-02-14T20:32:37.321Z,3.50
2023-02-14T20:35:41.690Z,3.50
2023-02-14T20:38:46.204Z,3.50
2023-02-14T20:41:50.431Z,3.50
2023-02-14T20:44:54.820Z,3.50
2023-02-14T20:48:03.243Z,3.50
2023-02-14T20:51:18.932Z,3.40
2023-02-14T20:54:25.002Z,3.50
2023-02-14T20:57:29.792Z,3.50
2023-02-14T21:00:34.520Z,3.50
2023-02-14T21:03:40.920Z,3.40
2023-02-14T21:06:47.620Z,3.40
2023-02-14T21:09:52.154Z,3.40
2023-02-14T21:12:56.547Z,3.40
2023-02-14T21:16:04.627Z,3.30
2023-02-14T21:19:09.007Z,3.40
2023-02-14T21:22:13.542Z,3.30
2023-02-14T21:25:18.173Z,3.40
2023-02-14T21:28:22.504Z,3.30
2023-02-14T21:31:27.052Z,3.30
2023-02-14T21:34:31.300Z,3.40
2023-02-14T21:37:35.590Z,3.30
2023-02-14T21:40:40.008Z,3.30
2023-02-14T21:43:46.167Z,3.30
2023-02-14T21:46:50.548Z,3.30
2023-02-14T21:50:13.409Z,3.30
2023-02-14T21:53:18.380Z,3.30
2023-02-14T21:56:23.826Z,3.30
2023-02-14T21:59:28.323Z,3.40
2023-02-14T22:02:32.771Z,3.30
2023-02-14T22:05:37.215Z,3.30
2023-02-14T22:08:42.464Z,3.30
2023-02-14T22:11:49.151Z,3.30
2023-02-14T22:14:53.736Z,3.30
2023-02-14T22:17:58.002Z,3.30
2023-02-14T22:21:07.822Z,3.30
2023-02-14T22:24:12.870Z,3.30
2023-02-14T22:27:17.700Z,3.30
2023-02-14T22:30:22.187Z,3.30
2023-02-14T22:33:26.594Z,3.30
2023-02-14T22:36:31.078Z,3.30
2023-02-14T22:39:35.214Z,3.20
2023-02-14T22:42:39.726Z,3.20
2023-02-14T22:45:44.022Z,3.20
2023-02-14T22:48:49.701Z,3.20
2023-02-14T22:51:53.785Z,3.20
2023-02-14T22:54:58.000Z,3.20
2023-02-14T22:58:02.248Z,3.20
2023-02-14T23:01:07.020Z,3.20
2023-02-14T23:04:11.739Z,3.20
2023-02-14T23:07:16.163Z,3.20
2023-02-14T23:10:20.564Z,3.20
2023-02-14T23:13:43.375Z,3.30
2023-02-14T23:17:07.031Z,3.30
2023-02-14T23:20:30.076Z,3.30
2023-02-14T23:23:34.541Z,3.30
2023-02-14T23:26:38.996Z,3.30
2023-02-14T23:29:43.425Z,3.20
2023-02-14T23:32:48.087Z,3.20
2023-02-14T23:35:52.662Z,3.20
2023-02-14T23:38:57.110Z,3.20
2023-02-14T23:42:02.092Z,3.30
2023-02-14T23:45:25.697Z,3.30
2023-02-14T23:48:31.495Z,3.20
2023-02-14T23:51:36.384Z,3.20
2023-02-14T23:54:41.120Z,3.30
2023-02-14T23:57:45.351Z,3.30
